Sirios Cement IV — 5BQY4 — position and weather

sailwx.info

Track history (hours):
 
Tides and Currents Weather Stations Pressure Air Temp Water Temp Dewpoint Dewpoint Depression Visibility Wind Speed Wind Dir Waves Ship Positions

Sirios Cement IV

Last reported at 2018-Jun-14 13:48 UTC. Time now 2018-Jun-19 02:58 UTC.
Position N 32°51' E 035°01'.

Length 134 m; draft 8.5 m.

Type: Cargo ship. MMSI: 212754000.

Date/timePositionNaut miles runAvg speedWind from/ knotsBaromVisibWave heightAir tempDewpointWater temp
2018-Jun-14 13:48N 32°51' E 035°01'1 2.7
2018-Jun-14 13:26N 32°52' E 034°60'1 1.4
2018-Jun-14 12:58N 32°52' E 034°60'2 4.5
2018-Jun-14 12:30N 32°54' E 034°59'0 0.1
2018-Jun-14 07:39N 32°54' E 034°59'0 0.0
2018-Jun-14 07:23N 32°54' E 034°59'0 0.0
2018-Jun-14 03:05N 32°54' E 034°59'0 0.0
2018-Jun-14 02:53N 32°54' E 034°59'0 0.0
2018-Jun-14 01:32N 32°54' E 034°59'0 0.0
2018-Jun-14 01:23N 32°54' E 034°59'0 0.0
2018-Jun-14 00:47N 32°54' E 034°59'0 0.0
2018-Jun-14 00:17N 32°54' E 034°59'0 0.0
2018-Jun-13 23:47N 32°54' E 034°59'0 0.0
2018-Jun-13 23:20N 32°54' E 034°59'0 0.0
2018-Jun-13 22:50N 32°54' E 034°59'0 0.0
2018-Jun-13 22:26N 32°54' E 034°59'0 0.0
2018-Jun-13 20:53N 32°54' E 034°59'0 0.0
2018-Jun-13 20:20N 32°54' E 034°59'0 0.0
2018-Jun-13 19:41N 32°54' E 034°59'0 0.0
2018-Jun-13 19:26N 32°54' E 034°59'0 0.0
2018-Jun-13 18:56N 32°54' E 034°59'0 0.0
2018-Jun-13 18:26N 32°54' E 034°59'0 0.0
2018-Jun-13 17:59N 32°54' E 034°59'0 0.0
2018-Jun-13 12:59N 32°54' E 034°59'0 0.0
2018-Jun-13 12:26N 32°54' E 034°59'0 0.0
2018-Jun-13 05:50N 32°54' E 034°59'0 0.0
2018-Jun-13 05:05N 32°54' E 034°59'0 0.0
2018-Jun-13 04:56N 32°54' E 034°59'0 0.0
2018-Jun-13 04:29N 32°54' E 034°59'0 0.0
2018-Jun-13 03:23N 32°54' E 034°59'0 0.0
2018-Jun-12 22:11N 32°54' E 034°59'0 0.0
2018-Jun-12 21:41N 32°54' E 034°59'0 0.0
2018-Jun-12 21:23N 32°54' E 034°59'0 0.0
2018-Jun-12 20:59N 32°54' E 034°59'0 0.0
2018-Jun-12 20:26N 32°54' E 034°59'0 0.0
2018-Jun-12 19:59N 32°54' E 034°59'0 0.0
2018-Jun-12 17:05N 32°54' E 034°59'0 0.0
2018-Jun-12 15:02N 32°54' E 034°59'0 0.0
2018-Jun-12 11:32N 32°54' E 034°59'0 0.0
2018-Jun-12 07:35N 32°54' E 034°59'0 0.0
2018-Jun-12 07:23N 32°54' E 034°59'1 0.7
2018-Jun-12 06:36N 32°54' E 034°58'0 0.1
2018-Jun-12 05:47N 32°54' E 034°58'0 0.0
2018-Jun-12 04:47N 32°54' E 034°58'0 0.0
2018-Jun-12 04:29N 32°54' E 034°58'0 0.0
2018-Jun-12 03:56N 32°54' E 034°58'0 0.0
2018-Jun-12 03:11N 32°54' E 034°58'0 0.0
2018-Jun-12 02:44N 32°54' E 034°58'0 0.0
2018-Jun-12 02:08N 32°54' E 034°58'0 0.0
2018-Jun-12 01:59N 32°54' E 034°58'0 0.0
2018-Jun-12 01:26N 32°54' E 034°58'0 0.0
2018-Jun-12 00:59N 32°54' E 034°58'0 0.0
2018-Jun-12 00:11N 32°54' E 034°58'0 0.0
2018-Jun-11 22:44N 32°54' E 034°58'0 0.2
2018-Jun-11 22:12N 32°54' E 034°58'0 0.7
2018-Jun-11 22:00N 32°54' E 034°58'0 0.8
2018-Jun-11 21:30N 32°54' E 034°57'0 0.9
2018-Jun-11 20:59N 32°54' E 034°57'0 0.8
2018-Jun-11 20:29N 32°54' E 034°56'0 0.8
2018-Jun-11 19:59N 32°54' E 034°56'0 0.8
2018-Jun-11 19:28N 32°54' E 034°55'0 0.9
2018-Jun-11 18:59N 32°54' E 034°55'0 0.9
2018-Jun-11 18:30N 32°54' E 034°54'1 1.0
2018-Jun-11 17:55N 32°54' E 034°54'1 1.0
2018-Jun-11 17:09N 32°54' E 034°53'0 1.0
2018-Jun-11 16:45N 32°54' E 034°52'0 1.1
2018-Jun-11 16:26N 32°53' E 034°52'1 1.1
2018-Jun-11 15:59N 32°53' E 034°51'1 1.3
2018-Jun-11 15:31N 32°53' E 034°51'3 5.1
2018-Jun-11 14:59N 32°54' E 034°48'510 9.9
2018-Jun-09 11:35N 37°14' E 025°51'1 9.9
2018-Jun-09 11:30N 37°15' E 025°51'5 9.9
2018-Jun-09 11:00N 37°18' E 025°46'910.1
2018-Jun-09 10:05N 37°25' E 025°39'110.2
2018-Jun-09 09:57N 37°26' E 025°38'510.2
2018-Jun-09 09:31N 37°30' E 025°34'510.2
2018-Jun-09 09:01N 37°34' E 025°30'510.4
2018-Jun-09 08:31N 37°38' E 025°26'510.5
2018-Jun-09 08:01N 37°42' E 025°21'510.4
2018-Jun-09 07:30N 37°46' E 025°17'  
2018-Jun-06 19:14N 38°41' E 024°16'7 9.5
2018-Jun-06 18:33N 38°36' E 024°22'110.2
2018-Jun-06 18:30N 38°36' E 024°23'2610.1
2018-Jun-06 15:57N 38°16' E 024°44'3610.0
2018-Jun-06 12:21N 37°49' E 025°14'410.3
2018-Jun-06 12:00N 37°46' E 025°17'1110.3
2018-Jun-06 10:58N 37°38' E 025°26'510.0
2018-Jun-06 10:30N 37°35' E 025°29'510.2
2018-Jun-06 10:00N 37°31' E 025°34'510.9
2018-Jun-06 09:30N 37°27' E 025°38'611.0
2018-Jun-06 08:59N 37°22' E 025°43'511.3
2018-Jun-06 08:30N 37°18' E 025°47'  
Track history (hours):
 
Tides and Currents Weather Stations Pressure Air Temp Water Temp Dewpoint Dewpoint Depression Visibility Wind Speed Wind Dir Waves Ship Positions

Sirios Cement IV

Last reported at 2018-Jun-14 13:48 UTC. Time now 2018-Jun-19 02:58 UTC.
Position N 32°51' E 035°01'.

Length 134 m; draft 8.5 m.

Type: Cargo ship. MMSI: 212754000.

Date/timePositionNaut miles runAvg speedWind from/ knotsBaromVisibWave heightAir tempDewpointWater temp
2018-Jun-14 13:48N 32°51' E 035°01'1 2.7
2018-Jun-14 13:26N 32°52' E 034°60'1 1.4
2018-Jun-14 12:58N 32°52' E 034°60'2 4.5
2018-Jun-14 12:30N 32°54' E 034°59'0 0.1
2018-Jun-14 07:39N 32°54' E 034°59'0 0.0
2018-Jun-14 07:23N 32°54' E 034°59'0 0.0
2018-Jun-14 03:05N 32°54' E 034°59'0 0.0
2018-Jun-14 02:53N 32°54' E 034°59'0 0.0
2018-Jun-14 01:32N 32°54' E 034°59'0 0.0
2018-Jun-14 01:23N 32°54' E 034°59'0 0.0
2018-Jun-14 00:47N 32°54' E 034°59'0 0.0
2018-Jun-14 00:17N 32°54' E 034°59'0 0.0
2018-Jun-13 23:47N 32°54' E 034°59'0 0.0
2018-Jun-13 23:20N 32°54' E 034°59'0 0.0
2018-Jun-13 22:50N 32°54' E 034°59'0 0.0
2018-Jun-13 22:26N 32°54' E 034°59'0 0.0
2018-Jun-13 20:53N 32°54' E 034°59'0 0.0
2018-Jun-13 20:20N 32°54' E 034°59'0 0.0
2018-Jun-13 19:41N 32°54' E 034°59'0 0.0
2018-Jun-13 19:26N 32°54' E 034°59'0 0.0
2018-Jun-13 18:56N 32°54' E 034°59'0 0.0
2018-Jun-13 18:26N 32°54' E 034°59'0 0.0
2018-Jun-13 17:59N 32°54' E 034°59'0 0.0
2018-Jun-13 12:59N 32°54' E 034°59'0 0.0
2018-Jun-13 12:26N 32°54' E 034°59'0 0.0
2018-Jun-13 05:50N 32°54' E 034°59'0 0.0
2018-Jun-13 05:05N 32°54' E 034°59'0 0.0
2018-Jun-13 04:56N 32°54' E 034°59'0 0.0
2018-Jun-13 04:29N 32°54' E 034°59'0 0.0
2018-Jun-13 03:23N 32°54' E 034°59'0 0.0
2018-Jun-12 22:11N 32°54' E 034°59'0 0.0
2018-Jun-12 21:41N 32°54' E 034°59'0 0.0
2018-Jun-12 21:23N 32°54' E 034°59'0 0.0
2018-Jun-12 20:59N 32°54' E 034°59'0 0.0
2018-Jun-12 20:26N 32°54' E 034°59'0 0.0
2018-Jun-12 19:59N 32°54' E 034°59'0 0.0
2018-Jun-12 17:05N 32°54' E 034°59'0 0.0
2018-Jun-12 15:02N 32°54' E 034°59'0 0.0
2018-Jun-12 11:32N 32°54' E 034°59'0 0.0
2018-Jun-12 07:35N 32°54' E 034°59'0 0.0
2018-Jun-12 07:23N 32°54' E 034°59'1 0.7
2018-Jun-12 06:36N 32°54' E 034°58'0 0.1
2018-Jun-12 05:47N 32°54' E 034°58'0 0.0
2018-Jun-12 04:47N 32°54' E 034°58'0 0.0
2018-Jun-12 04:29N 32°54' E 034°58'0 0.0
2018-Jun-12 03:56N 32°54' E 034°58'0 0.0
2018-Jun-12 03:11N 32°54' E 034°58'0 0.0
2018-Jun-12 02:44N 32°54' E 034°58'0 0.0
2018-Jun-12 02:08N 32°54' E 034°58'0 0.0
2018-Jun-12 01:59N 32°54' E 034°58'0 0.0
2018-Jun-12 01:26N 32°54' E 034°58'0 0.0
2018-Jun-12 00:59N 32°54' E 034°58'0 0.0
2018-Jun-12 00:11N 32°54' E 034°58'0 0.0
2018-Jun-11 22:44N 32°54' E 034°58'0 0.2
2018-Jun-11 22:12N 32°54' E 034°58'0 0.7
2018-Jun-11 22:00N 32°54' E 034°58'0 0.8
2018-Jun-11 21:30N 32°54' E 034°57'0 0.9
2018-Jun-11 20:59N 32°54' E 034°57'0 0.8
2018-Jun-11 20:29N 32°54' E 034°56'0 0.8
2018-Jun-11 19:59N 32°54' E 034°56'0 0.8
2018-Jun-11 19:28N 32°54' E 034°55'0 0.9
2018-Jun-11 18:59N 32°54' E 034°55'0 0.9
2018-Jun-11 18:30N 32°54' E 034°54'1 1.0
2018-Jun-11 17:55N 32°54' E 034°54'1 1.0
2018-Jun-11 17:09N 32°54' E 034°53'0 1.0
2018-Jun-11 16:45N 32°54' E 034°52'0 1.1
2018-Jun-11 16:26N 32°53' E 034°52'1 1.1
2018-Jun-11 15:59N 32°53' E 034°51'1 1.3
2018-Jun-11 15:31N 32°53' E 034°51'3 5.1
2018-Jun-11 14:59N 32°54' E 034°48'510 9.9
2018-Jun-09 11:35N 37°14' E 025°51'1 9.9
2018-Jun-09 11:30N 37°15' E 025°51'5 9.9
2018-Jun-09 11:00N 37°18' E 025°46'910.1
2018-Jun-09 10:05N 37°25' E 025°39'110.2
2018-Jun-09 09:57N 37°26' E 025°38'510.2
2018-Jun-09 09:31N 37°30' E 025°34'510.2
2018-Jun-09 09:01N 37°34' E 025°30'510.4
2018-Jun-09 08:31N 37°38' E 025°26'510.5
2018-Jun-09 08:01N 37°42' E 025°21'510.4
2018-Jun-09 07:30N 37°46' E 025°17'  
2018-Jun-06 19:14N 38°41' E 024°16'7 9.5
2018-Jun-06 18:33N 38°36' E 024°22'110.2
2018-Jun-06 18:30N 38°36' E 024°23'2610.1
2018-Jun-06 15:57N 38°16' E 024°44'3610.0
2018-Jun-06 12:21N 37°49' E 025°14'410.3
2018-Jun-06 12:00N 37°46' E 025°17'1110.3
2018-Jun-06 10:58N 37°38' E 025°26'510.0
2018-Jun-06 10:30N 37°35' E 025°29'510.2
2018-Jun-06 10:00N 37°31' E 025°34'510.9
2018-Jun-06 09:30N 37°27' E 025°38'611.0
2018-Jun-06 08:59N 37°22' E 025°43'511.3
2018-Jun-06 08:30N 37°18' E 025°47'  

Dump ship's entire track history